createdAt,value
2023-02-08T00:01:06.922Z,-1.40
2023-02-08T00:03:34.141Z,-1.50
2023-02-08T00:06:01.389Z,-1.40
2023-02-08T00:08:28.633Z,-1.50
2023-02-08T00:10:55.805Z,-1.50
2023-02-08T00:13:23.358Z,-1.50
2023-02-08T00:15:54.045Z,-1.50
2023-02-08T00:18:22.738Z,-1.50
2023-02-08T00:20:50.434Z,-1.50
2023-02-08T00:23:18.367Z,-1.50
2023-02-08T00:25:45.514Z,-1.50
2023-02-08T00:28:15.614Z,-1.50
2023-02-08T00:30:43.724Z,-1.50
2023-02-08T00:33:11.777Z,-1.50
2023-02-08T00:35:41.055Z,-1.50
2023-02-08T00:38:08.251Z,-1.60
2023-02-08T00:40:35.692Z,-1.60
2023-02-08T00:43:02.985Z,-1.60
2023-02-08T00:45:33.257Z,-1.60
2023-02-08T00:48:00.567Z,-1.60
2023-02-08T00:50:27.836Z,-1.60
2023-02-08T00:52:55.030Z,-1.70
2023-02-08T00:55:22.158Z,-1.60
2023-02-08T00:57:49.347Z,-1.70
2023-02-08T01:00:16.886Z,-1.70
2023-02-08T01:02:44.062Z,-1.70
2023-02-08T01:05:11.622Z,-1.70
2023-02-08T01:07:40.307Z,-1.70
2023-02-08T01:10:12.261Z,-1.70
2023-02-08T01:12:39.629Z,-1.70
2023-02-08T01:15:07.678Z,-1.70
2023-02-08T01:17:34.821Z,-1.70
2023-02-08T01:20:01.947Z,-1.70
2023-02-08T01:22:30.388Z,-1.70
2023-02-08T01:24:57.561Z,-1.70
2023-02-08T01:27:24.670Z,-1.80
2023-02-08T01:29:52.755Z,-1.80
2023-02-08T01:32:20.068Z,-1.80
2023-02-08T01:34:47.540Z,-1.90
2023-02-08T01:37:14.888Z,-1.90
2023-02-08T01:39:42.087Z,-1.90
2023-02-08T01:42:15.146Z,-1.90
2023-02-08T01:45:29.809Z,-1.90
2023-02-08T01:48:06.006Z,-2.00
2023-02-08T01:50:55.906Z,-1.90
2023-02-08T01:53:26.174Z,-1.90
2023-02-08T01:55:57.760Z,-1.90
2023-02-08T01:58:27.872Z,-2.00
2023-02-08T02:00:55.058Z,-2.00
2023-02-08T02:03:23.883Z,-2.00
2023-02-08T02:06:00.453Z,-2.00
2023-02-08T02:08:27.936Z,-2.00
2023-02-08T02:10:54.973Z,-2.10
2023-02-08T02:13:25.473Z,-2.10
2023-02-08T02:15:54.956Z,-2.10
2023-02-08T02:18:30.564Z,-2.10
2023-02-08T02:21:31.795Z,-2.10
2023-02-08T02:24:17.588Z,-2.10
2023-02-08T02:27:24.620Z,-2.10
2023-02-08T02:30:34.564Z,-2.10
2023-02-08T02:33:17.570Z,-2.10
2023-02-08T02:36:16.347Z,-2.10
2023-02-08T02:39:05.222Z,-2.20
2023-02-08T02:42:17.354Z,-2.20
2023-02-08T02:45:37.846Z,-2.10
2023-02-08T02:48:20.556Z,-2.10
2023-02-08T02:51:18.354Z,-2.10
2023-02-08T02:54:21.586Z,-2.10
2023-02-08T02:56:54.850Z,-2.10
2023-02-08T02:59:22.800Z,-2.10
2023-02-08T03:01:50.054Z,-2.10
2023-02-08T03:04:40.225Z,-2.20
2023-02-08T03:07:16.301Z,-2.20
2023-02-08T03:10:05.654Z,-2.20
2023-02-08T03:12:53.580Z,-2.10
2023-02-08T03:15:54.414Z,-2.10
2023-02-08T03:18:56.026Z,-2.10
2023-02-08T03:21:51.495Z,-2.10
2023-02-08T03:24:48.804Z,-2.20
2023-02-08T03:28:06.298Z,-2.30
2023-02-08T03:31:06.206Z,-2.30
2023-02-08T03:33:46.477Z,-2.40
2023-02-08T03:36:36.673Z,-1.90
2023-02-08T03:39:12.850Z,-2.40
2023-02-08T03:41:44.926Z,-2.40
2023-02-08T03:44:38.706Z,-2.40
2023-02-08T03:47:17.608Z,-2.50
2023-02-08T03:49:49.403Z,-2.50
2023-02-08T03:52:17.070Z,-2.50
2023-02-08T03:54:53.523Z,-2.60
2023-02-08T03:57:29.394Z,-2.60
2023-02-08T04:00:06.536Z,-1.60
2023-02-08T04:02:55.793Z,-2.50
2023-02-08T04:05:24.590Z,-2.60
2023-02-08T04:07:52.759Z,-2.50
2023-02-08T04:10:20.614Z,-2.60
2023-02-08T04:12:49.006Z,-2.60
2023-02-08T04:15:17.155Z,-2.60
2023-02-08T04:17:44.409Z,-2.60
2023-02-08T04:20:12.021Z,-2.60
2023-02-08T04:22:39.239Z,-2.60
2023-02-08T04:25:06.775Z,-2.60
2023-02-08T04:27:33.935Z,-2.60
2023-02-08T04:30:01.202Z,-2.60
2023-02-08T04:32:28.267Z,-2.50
2023-02-08T04:34:55.317Z,-2.60
2023-02-08T04:37:22.592Z,-2.50
2023-02-08T04:39:49.738Z,-2.50
2023-02-08T04:42:16.915Z,-2.50
2023-02-08T04:44:44.025Z,-2.50
2023-02-08T04:47:11.145Z,-2.40
2023-02-08T04:49:38.226Z,-2.50
2023-02-08T04:52:05.741Z,-2.40
2023-02-08T04:54:33.663Z,-2.50
2023-02-08T04:57:00.757Z,-2.50
2023-02-08T04:59:27.997Z,-2.50
2023-02-08T05:01:55.178Z,-2.50
2023-02-08T05:04:22.271Z,-2.60
2023-02-08T05:06:49.337Z,-2.60
2023-02-08T05:09:16.435Z,-2.60
2023-02-08T05:11:43.570Z,-2.60
2023-02-08T05:14:10.664Z,-2.50
2023-02-08T05:16:37.760Z,-2.50
2023-02-08T05:19:04.816Z,-2.60
2023-02-08T05:21:31.973Z,-2.60
2023-02-08T05:23:59.061Z,-2.60
2023-02-08T05:26:26.140Z,-2.60
2023-02-08T05:28:53.317Z,-2.60
2023-02-08T05:31:24.705Z,-2.60
2023-02-08T05:33:53.137Z,-2.60
2023-02-08T05:36:21.274Z,-2.60
2023-02-08T05:38:48.342Z,-2.60
2023-02-08T05:41:16.900Z,-2.60
2023-02-08T05:43:43.966Z,-2.60
2023-02-08T05:46:11.077Z,-2.60
2023-02-08T05:48:38.497Z,-2.60
2023-02-08T05:51:05.699Z,-2.70
2023-02-08T05:53:32.831Z,-2.70
2023-02-08T05:56:00.154Z,-2.70
2023-02-08T05:58:28.256Z,-2.70
2023-02-08T06:00:55.442Z,-2.70
2023-02-08T06:03:22.640Z,-2.70
2023-02-08T06:05:49.746Z,-2.70
2023-02-08T06:08:16.885Z,-2.70
2023-02-08T06:10:45.799Z,-2.70
2023-02-08T06:13:12.996Z,-2.70
2023-02-08T06:15:40.392Z,-2.70
2023-02-08T06:18:09.254Z,-2.70
2023-02-08T06:20:36.724Z,-2.80
2023-02-08T06:23:04.660Z,-2.70
2023-02-08T06:25:32.196Z,-2.70
2023-02-08T06:27:59.326Z,-2.70
2023-02-08T06:30:26.541Z,-2.70
2023-02-08T06:32:53.643Z,-2.60
2023-02-08T06:35:20.888Z,-2.70
2023-02-08T06:37:48.080Z,-2.60
2023-02-08T06:40:15.309Z,-2.60
2023-02-08T06:42:43.200Z,-2.60
2023-02-08T06:45:13.312Z,-2.60
2023-02-08T06:47:40.997Z,-2.60
2023-02-08T06:50:09.201Z,-2.60
2023-02-08T06:52:37.567Z,-2.60
2023-02-08T06:55:05.305Z,-2.60
2023-02-08T06:57:32.467Z,-2.60
2023-02-08T07:00:00.168Z,-2.60
2023-02-08T07:02:27.773Z,-2.60
2023-02-08T07:04:55.037Z,-2.60
2023-02-08T07:07:22.173Z,-2.60
2023-02-08T07:09:49.213Z,-2.60
2023-02-08T07:12:16.710Z,-2.60
2023-02-08T07:14:44.712Z,-2.50
2023-02-08T07:17:13.305Z,-2.50
2023-02-08T07:19:40.894Z,-2.50
2023-02-08T07:22:08.356Z,-2.50
2023-02-08T07:24:40.658Z,-2.50
2023-02-08T07:27:10.730Z,-2.50
2023-02-08T07:29:38.592Z,-2.50
2023-02-08T07:32:07.878Z,-2.40
2023-02-08T07:34:36.931Z,-2.40
2023-02-08T07:37:04.473Z,-2.40
2023-02-08T07:39:31.719Z,-2.30
2023-02-08T07:41:59.253Z,-2.30
2023-02-08T07:44:30.270Z,-2.20
2023-02-08T07:46:57.344Z,-2.20
2023-02-08T07:49:24.514Z,-1.70
2023-02-08T07:51:51.721Z,-2.00
2023-02-08T07:54:18.819Z,-2.00
2023-02-08T07:56:46.031Z,-2.00
2023-02-08T07:59:14.738Z,-2.00
2023-02-08T08:01:42.045Z,-1.90
2023-02-08T08:04:09.487Z,-1.90
2023-02-08T08:06:36.700Z,-1.80
2023-02-08T08:09:04.018Z,-1.80
2023-02-08T08:11:31.613Z,-1.70
2023-02-08T08:13:58.751Z,-1.70
2023-02-08T08:16:26.009Z,-1.60
2023-02-08T08:18:53.370Z,-1.60
2023-02-08T08:21:20.588Z,-1.50
2023-02-08T08:23:47.825Z,-1.50
2023-02-08T08:26:19.497Z,-0.60
2023-02-08T08:28:47.570Z,-1.30
2023-02-08T08:31:21.498Z,-1.20
2023-02-08T08:33:49.395Z,-1.20
2023-02-08T08:36:16.609Z,-1.10
2023-02-08T08:38:43.936Z,-1.00
2023-02-08T08:41:17.817Z,-1.00
2023-02-08T08:43:45.385Z,-0.90
2023-02-08T08:46:12.600Z,-0.90
2023-02-08T08:48:39.893Z,-1.90
2023-02-08T08:51:07.803Z,-0.70
2023-02-08T08:53:36.953Z,-0.60
2023-02-08T08:56:05.031Z,-0.60
2023-02-08T08:58:32.119Z,-0.50
2023-02-08T09:01:00.540Z,-0.40
2023-02-08T09:03:29.004Z,-0.40
2023-02-08T09:05:56.326Z,-0.30
2023-02-08T09:08:23.542Z,-0.20
2023-02-08T09:10:50.716Z,-0.20
2023-02-08T09:13:21.839Z,-0.20
2023-02-08T09:15:49.560Z,-0.10
2023-02-08T09:18:17.253Z,0.00
2023-02-08T09:20:44.888Z,0.00
2023-02-08T09:23:12.807Z,0.10
2023-02-08T09:25:40.146Z,0.20
2023-02-08T09:28:07.303Z,0.20
2023-02-08T09:30:34.598Z,0.30
2023-02-08T09:33:01.682Z,0.30
2023-02-08T09:35:28.774Z,0.40
2023-02-08T09:37:58.148Z,0.40
2023-02-08T09:40:30.220Z,0.40
2023-02-08T09:43:13.221Z,0.50
2023-02-08T09:46:09.750Z,0.50
2023-02-08T09:48:40.110Z,0.50
2023-02-08T09:51:16.145Z,0.50
2023-02-08T09:53:50.909Z,0.50
2023-02-08T09:56:26.851Z,0.50
2023-02-08T09:58:54.876Z,0.60
2023-02-08T10:01:30.063Z,0.70
2023-02-08T10:04:14.391Z,0.80
2023-02-08T10:06:41.709Z,0.80
2023-02-08T10:09:14.644Z,0.90
2023-02-08T10:12:04.014Z,0.90
2023-02-08T10:14:55.383Z,1.00
2023-02-08T10:17:50.923Z,1.00
2023-02-08T10:20:43.327Z,0.70
2023-02-08T10:23:27.370Z,1.10
2023-02-08T10:26:14.007Z,1.20
2023-02-08T10:29:12.201Z,1.20
2023-02-08T10:32:13.729Z,1.30
2023-02-08T10:34:54.383Z,1.40
2023-02-08T10:37:32.508Z,1.40
2023-02-08T10:40:18.887Z,1.50
2023-02-08T10:42:52.752Z,1.60
2023-02-08T10:45:43.365Z,1.60
2023-02-08T10:48:28.135Z,1.70
2023-02-08T10:50:58.569Z,1.80
2023-02-08T10:53:26.667Z,1.80
2023-02-08T10:55:54.133Z,1.90
2023-02-08T10:58:26.451Z,2.00
2023-02-08T11:00:54.878Z,2.00
2023-02-08T11:03:28.330Z,2.10
2023-02-08T11:05:56.158Z,2.20
2023-02-08T11:08:26.927Z,2.20
2023-02-08T11:11:07.861Z,2.30
2023-02-08T11:13:42.818Z,2.40
2023-02-08T11:16:25.429Z,2.50
2023-02-08T11:19:01.307Z,2.60
2023-02-08T11:21:39.344Z,2.70
2023-02-08T11:24:15.402Z,3.10
2023-02-08T11:26:43.655Z,3.70
2023-02-08T11:29:30.765Z,4.00
2023-02-08T11:32:02.443Z,4.30
2023-02-08T11:34:35.974Z,4.40
2023-02-08T11:37:13.971Z,4.70
2023-02-08T11:39:49.744Z,4.80
2023-02-08T11:42:30.323Z,5.20
2023-02-08T11:44:59.904Z,5.50
2023-02-08T11:47:32.417Z,5.50
2023-02-08T11:50:04.119Z,5.70
2023-02-08T11:52:39.321Z,6.40
2023-02-08T11:55:26.060Z,6.80
2023-02-08T11:57:58.744Z,6.90
2023-02-08T12:00:38.151Z,7.30
2023-02-08T12:03:24.373Z,7.70
2023-02-08T12:06:37.895Z,7.90
2023-02-08T12:09:42.729Z,8.40
2023-02-08T12:12:42.615Z,8.40
2023-02-08T12:15:57.382Z,8.90
2023-02-08T12:19:01.997Z,9.00
2023-02-08T12:21:41.313Z,9.40
2023-02-08T12:24:30.266Z,9.10
2023-02-08T12:27:31.073Z,8.70
2023-02-08T12:30:22.894Z,8.80
2023-02-08T12:33:29.248Z,8.80
2023-02-08T12:36:17.167Z,9.40
2023-02-08T12:39:50.738Z,9.20
2023-02-08T12:42:53.885Z,9.50
2023-02-08T12:45:48.977Z,9.60
2023-02-08T12:48:31.178Z,10.10
2023-02-08T12:51:23.220Z,10.50
2023-02-08T12:53:58.623Z,10.60
2023-02-08T12:56:32.801Z,10.60
2023-02-08T12:59:13.105Z,10.60
2023-02-08T13:01:46.783Z,10.30
2023-02-08T13:04:26.171Z,10.30
2023-02-08T13:06:59.723Z,9.90
2023-02-08T13:09:35.215Z,9.60
2023-02-08T13:12:31.272Z,9.40
2023-02-08T13:15:30.466Z,9.70
2023-02-08T13:18:30.485Z,10.10
2023-02-08T13:21:03.474Z,10.70
2023-02-08T13:23:52.089Z,10.20
2023-02-08T13:26:33.729Z,10.00
2023-02-08T13:29:02.904Z,9.70
2023-02-08T13:31:42.502Z,9.60
2023-02-08T13:34:34.278Z,10.30
2023-02-08T13:37:16.535Z,10.50
2023-02-08T13:39:49.081Z,10.40
2023-02-08T13:42:42.857Z,10.10
2023-02-08T13:45:23.778Z,10.10
2023-02-08T13:48:00.977Z,9.50
2023-02-08T13:50:49.187Z,9.70
2023-02-08T13:53:19.775Z,9.90
2023-02-08T13:55:56.224Z,9.90
2023-02-08T13:58:46.273Z,10.00
2023-02-08T14:01:19.848Z,10.20
2023-02-08T14:04:07.304Z,10.20
2023-02-08T14:06:44.442Z,9.90
2023-02-08T14:10:03.345Z,9.60
2023-02-08T14:13:15.764Z,9.40
2023-02-08T14:15:44.125Z,9.70
2023-02-08T14:18:27.804Z,9.80
2023-02-08T14:21:06.782Z,10.30
2023-02-08T14:23:39.546Z,10.30
2023-02-08T14:26:20.760Z,10.30
2023-02-08T14:28:57.271Z,10.40
2023-02-08T14:31:41.865Z,10.70
2023-02-08T14:34:34.910Z,10.00
2023-02-08T14:37:18.026Z,9.60
2023-02-08T14:39:45.613Z,9.40
2023-02-08T14:42:14.376Z,9.00
2023-02-08T14:44:42.279Z,9.00
2023-02-08T14:47:24.337Z,9.90
2023-02-08T14:50:31.663Z,9.60
2023-02-08T14:53:03.531Z,9.40
2023-02-08T14:55:39.821Z,9.40
2023-02-08T14:58:08.584Z,9.00
2023-02-08T15:00:39.074Z,8.10
2023-02-08T15:03:14.833Z,7.10
2023-02-08T15:05:58.828Z,6.40
2023-02-08T15:08:27.189Z,5.70
2023-02-08T15:10:55.914Z,5.00
2023-02-08T15:13:25.131Z,4.60
2023-02-08T15:15:58.681Z,4.30
2023-02-08T15:18:30.667Z,4.00
2023-02-08T15:21:20.822Z,3.80
2023-02-08T15:24:22.645Z,3.60
2023-02-08T15:26:53.900Z,3.50
2023-02-08T15:29:42.757Z,3.30
2023-02-08T15:32:19.170Z,3.20
2023-02-08T15:34:58.252Z,3.20
2023-02-08T15:37:27.895Z,3.10
2023-02-08T15:39:58.530Z,3.10
2023-02-08T15:42:29.821Z,3.00
2023-02-08T15:45:00.675Z,2.90
2023-02-08T15:47:38.034Z,2.90
2023-02-08T15:50:08.543Z,2.80
2023-02-08T15:52:37.373Z,2.80
2023-02-08T15:55:08.930Z,2.80
2023-02-08T15:58:03.729Z,2.70
2023-02-08T16:00:35.198Z,2.60
2023-02-08T16:03:19.346Z,2.50
2023-02-08T16:05:58.059Z,2.50
2023-02-08T16:08:29.904Z,2.40
2023-02-08T16:11:04.626Z,2.30
2023-02-08T16:13:39.217Z,2.30
2023-02-08T16:16:37.557Z,2.20
2023-02-08T16:19:29.940Z,2.10
2023-02-08T16:22:21.515Z,2.00
2023-02-08T16:24:50.996Z,2.00
2023-02-08T16:27:29.995Z,1.90
2023-02-08T16:29:59.982Z,1.90
2023-02-08T16:32:39.531Z,1.80
2023-02-08T16:35:15.742Z,1.80
2023-02-08T16:37:43.275Z,1.70
2023-02-08T16:40:51.531Z,1.70
2023-02-08T16:43:28.971Z,1.70
2023-02-08T16:46:11.898Z,1.60
2023-02-08T16:48:44.619Z,1.50
2023-02-08T16:51:29.467Z,1.60
2023-02-08T16:54:11.657Z,1.60
2023-02-08T16:56:40.168Z,1.50
2023-02-08T16:59:09.072Z,1.50
2023-02-08T17:01:38.451Z,1.50
2023-02-08T17:04:06.411Z,1.50
2023-02-08T17:06:37.150Z,1.40
2023-02-08T17:09:08.170Z,1.40
2023-02-08T17:11:36.596Z,1.30
2023-02-08T17:14:05.458Z,1.30
2023-02-08T17:16:35.078Z,1.30
2023-02-08T17:19:04.435Z,1.30
2023-02-08T17:21:32.160Z,1.30
2023-02-08T17:23:59.584Z,1.20
2023-02-08T17:26:32.639Z,1.20
2023-02-08T17:29:00.206Z,1.20
2023-02-08T17:31:29.738Z,1.20
2023-02-08T17:34:04.592Z,1.20
2023-02-08T17:36:36.576Z,1.10
2023-02-08T17:39:06.158Z,1.00
2023-02-08T17:41:34.065Z,1.00
2023-02-08T17:44:01.720Z,0.90
2023-02-08T17:46:33.165Z,0.80
2023-02-08T17:49:01.870Z,0.80
2023-02-08T17:51:33.174Z,0.80
2023-02-08T17:54:06.605Z,0.80
2023-02-08T17:56:35.586Z,0.70
2023-02-08T17:59:05.550Z,0.70
2023-02-08T18:01:33.687Z,0.60
2023-02-08T18:04:01.835Z,0.60
2023-02-08T18:06:29.198Z,0.60
2023-02-08T18:08:57.128Z,0.60
2023-02-08T18:11:24.534Z,0.60
2023-02-08T18:13:54.318Z,0.60
2023-02-08T18:16:27.160Z,0.60
2023-02-08T18:18:56.993Z,0.60
2023-02-08T18:21:33.017Z,0.60
2023-02-08T18:24:02.284Z,0.60
2023-02-08T18:26:33.234Z,0.60
2023-02-08T18:29:02.697Z,0.60
2023-02-08T18:31:30.672Z,0.60
2023-02-08T18:33:58.234Z,0.60
2023-02-08T18:36:25.819Z,0.60
2023-02-08T18:38:55.903Z,0.50
2023-02-08T18:41:28.133Z,0.50
2023-02-08T18:43:58.301Z,0.50
2023-02-08T18:46:28.737Z,0.50
2023-02-08T18:48:56.335Z,0.50
2023-02-08T18:51:25.940Z,0.40
2023-02-08T18:53:55.243Z,0.50
2023-02-08T18:56:27.393Z,0.50
2023-02-08T18:58:58.038Z,0.40
2023-02-08T19:01:25.547Z,0.40
2023-02-08T19:03:54.183Z,0.40
2023-02-08T19:06:25.464Z,0.40
2023-02-08T19:08:56.315Z,0.30
2023-02-08T19:11:31.203Z,0.30
2023-02-08T19:14:02.176Z,0.30
2023-02-08T19:16:31.860Z,0.20
2023-02-08T19:19:02.525Z,0.20
2023-02-08T19:21:32.086Z,0.20
2023-02-08T19:24:03.477Z,0.10
2023-02-08T19:26:39.915Z,0.10
2023-02-08T19:29:13.468Z,0.10
2023-02-08T19:31:42.049Z,0.10
2023-02-08T19:34:11.786Z,0.00
2023-02-08T19:36:52.077Z,0.00
2023-02-08T19:39:24.583Z,0.00
2023-02-08T19:41:55.218Z,0.00
2023-02-08T19:44:23.092Z,0.00
2023-02-08T19:46:55.404Z,-0.10
2023-02-08T19:49:25.862Z,-0.10
2023-02-08T19:51:53.496Z,-0.10
2023-02-08T19:54:21.671Z,-0.10
2023-02-08T19:56:54.648Z,-0.10
2023-02-08T19:59:35.215Z,-0.10
2023-02-08T20:02:05.091Z,-0.30
2023-02-08T20:04:37.467Z,-0.20
2023-02-08T20:07:07.139Z,-0.20
2023-02-08T20:09:41.126Z,-0.20
2023-02-08T20:12:08.588Z,-0.20
2023-02-08T20:14:40.054Z,-0.20
2023-02-08T20:17:10.052Z,-0.20
2023-02-08T20:19:38.063Z,-0.20
2023-02-08T20:22:05.331Z,-0.20
2023-02-08T20:24:33.558Z,-0.20
2023-02-08T20:27:05.514Z,-0.10
2023-02-08T20:29:32.764Z,-0.10
2023-02-08T20:32:00.002Z,-0.10
2023-02-08T20:34:27.427Z,-0.20
2023-02-08T20:37:06.826Z,-0.10
2023-02-08T20:39:38.732Z,-0.20
2023-02-08T20:42:09.880Z,-0.20
2023-02-08T20:44:39.782Z,-0.20
2023-02-08T20:47:06.999Z,-0.30
2023-02-08T20:49:41.954Z,-0.30
2023-02-08T20:52:09.124Z,-0.30
2023-02-08T20:54:40.088Z,-0.30
2023-02-08T20:57:19.434Z,-0.30
2023-02-08T20:59:52.294Z,-0.30
2023-02-08T21:02:22.495Z,-0.20
2023-02-08T21:04:49.759Z,-0.30
2023-02-08T21:07:21.684Z,-0.40
2023-02-08T21:09:49.822Z,-0.40
2023-02-08T21:12:19.312Z,-0.40
2023-02-08T21:14:46.759Z,-0.40
2023-02-08T21:17:18.646Z,-0.40
2023-02-08T21:19:48.884Z,-0.40
2023-02-08T21:22:17.108Z,-0.40
2023-02-08T21:24:44.253Z,-0.50
2023-02-08T21:27:13.687Z,-0.50
2023-02-08T21:29:43.932Z,-0.50
2023-02-08T21:32:14.448Z,-0.50
2023-02-08T21:34:44.327Z,-0.60
2023-02-08T21:37:13.694Z,-0.50
2023-02-08T21:39:40.852Z,-0.60
2023-02-08T21:42:08.129Z,-0.60
2023-02-08T21:44:35.381Z,-0.60
2023-02-08T21:47:02.687Z,-0.60
2023-02-08T21:49:48.523Z,-0.60
2023-02-08T21:52:36.903Z,-0.70
2023-02-08T21:55:04.294Z,-0.70
2023-02-08T21:57:37.859Z,-0.70
2023-02-08T22:00:10.345Z,-0.70
2023-02-08T22:02:40.481Z,-0.70
2023-02-08T22:05:08.328Z,-0.70
2023-02-08T22:07:54.515Z,-0.70
2023-02-08T22:10:30.402Z,-0.80
2023-02-08T22:12:58.450Z,-0.80
2023-02-08T22:15:29.067Z,-0.80
2023-02-08T22:18:00.158Z,-0.80
2023-02-08T22:20:27.937Z,-0.80
2023-02-08T22:22:55.521Z,-0.80
2023-02-08T22:25:23.590Z,-0.90
2023-02-08T22:27:50.777Z,-0.90
2023-02-08T22:30:19.222Z,-0.90
2023-02-08T22:32:48.091Z,-0.90
2023-02-08T22:35:17.788Z,-0.90
2023-02-08T22:37:45.366Z,-0.90
2023-02-08T22:40:12.843Z,-1.00
2023-02-08T22:42:40.863Z,-0.90
2023-02-08T22:45:09.274Z,-1.00
2023-02-08T22:47:36.856Z,-1.00
2023-02-08T22:50:06.390Z,-1.00
2023-02-08T22:52:34.584Z,-1.00
2023-02-08T22:55:04.230Z,-1.10
2023-02-08T22:57:34.053Z,-1.10
2023-02-08T23:00:02.045Z,-1.10
2023-02-08T23:02:29.410Z,-1.10
2023-02-08T23:04:56.652Z,-1.10
2023-02-08T23:07:23.890Z,-1.10
2023-02-08T23:09:51.929Z,-1.10
2023-02-08T23:12:19.112Z,-1.10
2023-02-08T23:14:46.322Z,-1.10
2023-02-08T23:17:13.725Z,-1.10
2023-02-08T23:19:41.784Z,-1.10
2023-02-08T23:22:09.164Z,-1.10
2023-02-08T23:24:36.386Z,-1.10
2023-02-08T23:27:03.584Z,-1.20
2023-02-08T23:29:30.854Z,-1.20
2023-02-08T23:31:58.042Z,0.40
2023-02-08T23:34:25.338Z,-1.20
2023-02-08T23:36:52.565Z,-1.20
2023-02-08T23:39:20.059Z,-1.20
2023-02-08T23:41:47.281Z,-1.30
2023-02-08T23:44:14.488Z,-0.50
2023-02-08T23:46:41.653Z,-1.30
2023-02-08T23:49:09.051Z,-1.30
2023-02-08T23:51:36.429Z,-1.30
2023-02-08T23:54:03.796Z,-1.30
2023-02-08T23:56:33.906Z,-1.30
2023-02-08T23:59:01.088Z,-1.30
